KONL/ONL METAR and TAF weather

Enter ICAO airport designator
Station Type Date Time Source
KONL METAR 2021/05/17 22:35 UTC NOAA

KONL 172235Z AUTO 09006KT 10SM BKN016 OVC024 17/13 A3002 RMK AO2 T01680132


Station Type Date Time Source
KONL Decoded METAR 2021/05/17 22:35 UTC NOAA

O'Neill / Baker Field, NE, United States (KONL) 42-28N 098-41W
May 17, 2021 - 06:35 PM EDT / 2021.05.17 2235 UTC
Wind: from the E (090 degrees) at 7 MPH (6 KT):0
Visibility: 10 mile(s):0
Sky conditions: overcast
Temperature: 62.2 F (16.8 C)
Dew Point: 55.8 F (13.2 C)
Relative Humidity: 79%
Pressure (altimeter): 30.02 in. Hg (1016 hPa)
ob: KONL 172235Z AUTO 09006KT 10SM BKN016 OVC024 17/13 A3002 RMK AO2 T01680132
cycle: 22

Station Type Date Time Source
KONL TAF UTC NOAA

Error!

Example: see airport list